Southfield, Michigan
Current Conditions -  °F | °C
As of 9:55 PM on Wednesday 22 Oct 2014 (Local Time) from KVLL Reporting Station
Clear Clear  
Wind Chill: 43°   Ceiling: Unl
Heat Index: 46°   Visibility: 10mi
Dew Point: 39°   Wind: 6mph
Humidity: 78%   Direction: 40°NE
Pressure: 30.3"   Gusts: NA
Location:  42.48°N, 83.24°W
Report Text: KVLL 230155Z AUTO 04005KT 10SM CLR 08/04 A3030 RMK AO2 T00760040
Loading
Personal Weather Stations






























Interactive Weather Map New forecast layout! Learn more

10-Day Weather Forecast

Advertisements
Track Severe Weather on mobile